Pawnee, Texas
Current Conditions -  °F | °C
As of 3:35 PM on Sunday 21 Dec 2014 (Local Time) from KBEA Reporting Station
Overcast Overcast  
Wind Chill: 16°   Ceiling: 1600
Heat Index: 16°   Visibility: 10mi
Dew Point: 12°   Wind: 5mph
Humidity: 82%   Direction: 170°S
Pressure: 29.95"   Gusts: NA
Location:  28.65°N, 98°W
Report Text: KBEA 212135Z AUTO 17004KT 10SM OVC016 16/12 A2995 RMK AO2 T01550124
Loading
Personal Weather Stations






























Interactive Weather Map New forecast layout! Learn more

10-Day Weather Forecast

Advertisements
Track Severe Weather on mobile